This is the latest recevied weather packets stored in our database for station/object DC1NF-7. If no packets are shown the sender has not sent any weather packets the latest 10 day(s).
| Time | Temp. | Humidity | Pressure | Rain* | Wind** | Luminosity | Snow |
|---|---|---|---|---|---|---|---|
| 1777185327 | 10° C | 62% | 1023.6 hPa | 0 mm | - | 281 W/m² | - |
| 1777184726 | 9.44° C | 64% | 1023.5 hPa | 0 mm | - | 253 W/m² | - |
| 1777184118 | 8.89° C | 70% | 1023.7 hPa | 0 mm | - | 220 W/m² | - |
| 1777183574 | 8.33° C | 70% | 1023.5 hPa | 0 mm | - | 188 W/m² | - |
| 1777182970 | 7.22° C | 74% | 1023.3 hPa | 0 mm | - | 155 W/m² | - |
| 1777182366 | 6.11° C | 73% | 1023.2 hPa | 0 mm | - | 121 W/m² | - |
| 1777181762 | 5.56° C | 73% | 1023.1 hPa | 0 mm | - | 112 W/m² | - |
| 1777181162 | 5.56° C | 73% | 1022.9 hPa | 0 mm | - | 92 W/m² | - |
| 1777180559 | 5.56° C | 71% | 1022.9 hPa | 0 mm | - | 73 W/m² | - |
| 1777179952 | 4.44° C | 75% | 1022.7 hPa | 0 mm | - | 55 W/m² | - |
| 1777179348 | 4.44° C | 76% | 1022.5 hPa | 0 mm | - | 43 W/m² | - |
| 1777178747 | 3.89° C | 78% | 1022.3 hPa | 0 mm | - | 33 W/m² | - |
| 1777178140 | 3.89° C | 78% | 1022.2 hPa | 0 mm | - | 21 W/m² | - |
| 1777177540 | 3.33° C | 79% | 1021.9 hPa | 0 mm | - | 14 W/m² | - |
| 1777176934 | 3.33° C | 80% | 1021.7 hPa | 0 mm | - | 8 W/m² | - |
| 1777176331 | 3.89° C | 78% | 1021.5 hPa | 0 mm | - | 4 W/m² | - |
| 1777175728 | 3.33° C | 80% | 1021.3 hPa | 0 mm | - | 1 W/m² | - |
| 1777175128 | 3.33° C | 80% | 1021.4 hPa | 0 mm | - | 0 W/m² | - |
| 1777174521 | 3.89° C | 78% | 1021.2 hPa | 0 mm | - | 0 W/m² | - |
| 1777173917 | 4.44° C | 75% | 1021.2 hPa | 0 mm | - | 0 W/m² | - |
| 1777173376 | 4.44° C | 74% | 1021 hPa | 0 mm | - | 0 W/m² | - |
| 1777172769 | 4.44° C | 74% | 1021 hPa | 0 mm | - | 0 W/m² | - |
| 1777172166 | 4.44° C | 74% | 1020.8 hPa | 0 mm | - | 0 W/m² | - |
| 1777171563 | 4.44° C | 75% | 1020.8 hPa | 0 mm | - | 0 W/m² | - |
| 1777170959 | 4.44° C | 75% | 1020.8 hPa | 0 mm | - | 0 W/m² | - |
* Rain latest hour (hover to see other rain measurements)
** Current wind speed in m/s (hover to see current wind gust speed)